createdAt,value
2023-01-10T00:00:00.960Z,23.55
2023-01-10T00:05:03.750Z,25.50
2023-01-10T00:10:06.180Z,24.08
2023-01-10T00:15:08.908Z,26.60
2023-01-10T00:20:11.835Z,26.42
2023-01-10T00:25:14.306Z,26.15
2023-01-10T00:30:17.136Z,27.38
2023-01-10T00:35:20.214Z,28.23
2023-01-10T00:40:22.462Z,27.23
2023-01-10T00:45:25.299Z,27.20
2023-01-10T00:50:27.601Z,27.42
2023-01-10T00:55:29.962Z,26.67
2023-01-10T01:00:32.255Z,26.35
2023-01-10T01:05:39.733Z,24.92
2023-01-10T01:10:42.090Z,23.98
2023-01-10T01:15:44.676Z,26.92
2023-01-10T01:20:48.115Z,25.75
2023-01-10T01:25:54.089Z,24.85
2023-01-10T01:30:56.399Z,28.08
2023-01-10T01:35:58.651Z,25.45
2023-01-10T01:41:00.865Z,26.85
2023-01-10T01:46:04.398Z,26.88
2023-01-10T01:51:19.500Z,27.38
2023-01-10T01:56:28.738Z,26.42
2023-01-10T02:01:32.860Z,25.13
2023-01-10T02:06:35.349Z,23.20
2023-01-10T02:11:37.600Z,23.88
2023-01-10T02:16:39.867Z,23.85
2023-01-10T02:27:33.210Z,21.50
2023-01-10T02:38:00.783Z,21.85
2023-01-10T02:48:13.036Z,23.42
2023-01-10T02:53:23.528Z,23.42
2023-01-10T02:58:54.727Z,22.35
2023-01-10T03:14:23.016Z,24.35
2023-01-10T03:19:31.498Z,22.65
2023-01-10T03:24:39.504Z,24.52
2023-01-10T03:30:21.499Z,24.50
2023-01-10T03:35:33.379Z,25.27
2023-01-10T03:40:46.307Z,24.52
2023-01-10T03:46:11.368Z,26.63
2023-01-10T03:51:15.853Z,26.20
2023-01-10T03:56:18.116Z,25.45
2023-01-10T04:01:20.546Z,26.38
2023-01-10T04:06:22.891Z,26.73
2023-01-10T04:11:25.216Z,26.50
2023-01-10T04:16:27.634Z,26.50
2023-01-10T04:21:29.940Z,30.58
2023-01-10T04:26:32.582Z,25.67
2023-01-10T04:31:35.011Z,29.05
2023-01-10T04:36:37.455Z,28.45
2023-01-10T04:41:39.819Z,28.25
2023-01-10T04:46:42.103Z,25.92
2023-01-10T04:51:44.384Z,26.45
2023-01-10T04:56:46.639Z,26.48
2023-01-10T05:01:48.995Z,24.73
2023-01-10T05:06:51.415Z,25.17
2023-01-10T05:11:53.676Z,24.00
2023-01-10T05:16:56.699Z,22.75
2023-01-10T05:21:59.029Z,23.83
2023-01-10T05:27:01.254Z,24.42
2023-01-10T05:32:03.609Z,23.55
2023-01-10T05:37:05.908Z,60.67
2023-01-10T05:42:08.102Z,25.80
2023-01-10T05:47:10.374Z,24.42
2023-01-10T05:52:12.665Z,23.70
2023-01-10T05:57:14.948Z,25.63
2023-01-10T06:02:17.448Z,22.33
2023-01-10T06:07:19.742Z,22.38
2023-01-10T06:12:21.941Z,22.23
2023-01-10T06:17:24.237Z,20.90
2023-01-10T06:22:27.998Z,21.98
2023-01-10T06:27:30.438Z,22.73
2023-01-10T06:32:33.332Z,20.90
2023-01-10T06:37:35.561Z,22.08
2023-01-10T06:42:37.772Z,22.25
2023-01-10T06:47:40.012Z,22.40
2023-01-10T06:52:42.386Z,21.67
2023-01-10T06:57:44.636Z,22.42
2023-01-10T07:02:47.057Z,32.45
2023-01-10T07:07:49.632Z,24.23
2023-01-10T07:12:51.902Z,23.70
2023-01-10T07:17:56.878Z,23.48
2023-01-10T07:23:00.515Z,22.88
2023-01-10T07:28:04.661Z,23.58
2023-01-10T07:33:06.943Z,24.17
2023-01-10T07:38:09.514Z,23.98
2023-01-10T07:43:11.736Z,22.58
2023-01-10T07:48:13.978Z,21.52
2023-01-10T07:53:16.197Z,23.42
2023-01-10T07:58:18.916Z,23.40
2023-01-10T08:03:22.374Z,23.10
2023-01-10T08:08:24.699Z,22.35
2023-01-10T08:13:27.159Z,22.48
2023-01-10T08:18:29.447Z,22.77
2023-01-10T08:23:32.483Z,22.40
2023-01-10T08:28:34.725Z,23.25
2023-01-10T08:33:40.197Z,23.48
2023-01-10T08:38:42.436Z,24.50
2023-01-10T08:43:44.682Z,24.20
2023-01-10T08:48:47.249Z,23.48
2023-01-10T08:53:49.468Z,24.00
2023-01-10T08:58:51.696Z,24.52
2023-01-10T09:03:53.936Z,25.73
2023-01-10T09:08:56.192Z,22.95
2023-01-10T09:13:58.700Z,23.33
2023-01-10T09:19:01.015Z,23.48
2023-01-10T09:24:03.356Z,22.63
2023-01-10T09:29:05.627Z,22.40
2023-01-10T09:34:07.905Z,20.80
2023-01-10T09:39:10.172Z,20.50
2023-01-10T09:54:43.001Z,20.38
2023-01-10T09:59:49.079Z,20.38
2023-01-10T10:10:26.073Z,19.70
2023-01-10T10:26:11.984Z,20.05
2023-01-10T10:41:56.415Z,19.08
2023-01-10T10:46:59.715Z,17.55
2023-01-10T10:52:08.154Z,17.42
2023-01-10T10:57:12.746Z,17.42
2023-01-10T11:02:33.047Z,18.20
2023-01-10T11:07:37.661Z,16.58
2023-01-10T11:12:45.303Z,17.35
2023-01-10T11:18:10.705Z,19.10
2023-01-10T11:23:21.520Z,18.30
2023-01-10T11:28:27.798Z,18.73
2023-01-10T11:33:35.674Z,17.25
2023-01-10T11:38:37.912Z,17.67
2023-01-10T11:43:41.350Z,17.25
2023-01-10T11:54:00.906Z,16.77
2023-01-10T11:59:14.760Z,17.25
2023-01-10T12:04:21.198Z,18.83
2023-01-10T12:14:56.166Z,17.27
2023-01-10T12:20:01.595Z,16.48
2023-01-10T12:25:11.524Z,18.77
2023-01-10T12:30:21.995Z,17.58
2023-01-10T12:40:53.553Z,18.60
2023-01-10T12:46:12.659Z,16.48
2023-01-10T12:51:19.241Z,17.58
2023-01-10T12:56:21.907Z,15.23
2023-01-10T13:01:30.151Z,15.35
2023-01-10T13:06:38.568Z,15.52
2023-01-10T13:11:48.701Z,15.05
2023-01-10T13:17:11.648Z,14.68
2023-01-10T13:22:35.964Z,15.07
2023-01-10T13:27:38.459Z,15.07
2023-01-10T13:32:40.804Z,14.75
2023-01-10T13:52:20.608Z,14.32
2023-01-10T13:57:49.954Z,13.70
2023-01-10T14:02:52.975Z,15.15
2023-01-10T14:07:56.682Z,15.13
2023-01-10T14:18:22.677Z,15.60
2023-01-10T14:23:35.289Z,14.35
2023-01-10T14:28:40.592Z,13.90
2023-01-10T14:33:44.217Z,15.00
2023-01-10T14:38:47.413Z,14.85
2023-01-10T14:43:57.732Z,15.07
2023-01-10T14:49:01.104Z,14.70
2023-01-10T14:54:13.781Z,23.95
2023-01-10T15:04:33.028Z,23.00
2023-01-10T15:09:35.327Z,17.95
2023-01-10T15:14:38.223Z,18.67
2023-01-10T15:19:41.053Z,19.00
2023-01-10T15:24:43.342Z,17.63
2023-01-10T15:29:47.139Z,18.38
2023-01-10T15:34:53.186Z,18.55
2023-01-10T15:39:55.741Z,17.83
2023-01-10T15:44:58.453Z,19.98
2023-01-10T15:50:00.908Z,20.35
2023-01-10T15:55:34.976Z,31.08
2023-01-10T16:00:37.256Z,19.38
2023-01-10T16:05:39.553Z,18.42
2023-01-10T16:10:41.821Z,21.00
2023-01-10T16:15:44.084Z,17.63
2023-01-10T16:20:48.789Z,21.50
2023-01-10T16:25:53.998Z,23.98
2023-01-10T16:30:56.243Z,18.73
2023-01-10T16:36:00.252Z,22.13
2023-01-10T16:41:23.926Z,19.02
2023-01-10T16:46:26.716Z,19.35
2023-01-10T16:51:32.738Z,20.58
2023-01-10T16:56:35.006Z,26.13
2023-01-10T17:01:42.331Z,20.17
2023-01-10T17:06:44.560Z,18.27
2023-01-10T17:11:47.067Z,21.77
2023-01-10T17:16:50.096Z,18.10
2023-01-10T17:21:53.039Z,18.63
2023-01-10T17:26:55.300Z,21.33
2023-01-10T17:31:57.607Z,17.77
2023-01-10T17:36:59.870Z,17.23
2023-01-10T17:42:02.442Z,17.02
2023-01-10T17:47:04.814Z,16.58
2023-01-10T17:52:07.116Z,18.30
2023-01-10T17:57:09.439Z,17.38
2023-01-10T18:02:18.004Z,15.43
2023-01-10T18:07:20.694Z,15.65
2023-01-10T18:12:22.998Z,15.90
2023-01-10T18:17:25.460Z,17.55
2023-01-10T18:22:47.556Z,12.73
2023-01-10T18:27:50.536Z,13.93
2023-01-10T18:32:55.223Z,14.82
2023-01-10T18:37:58.644Z,18.42
2023-01-10T18:43:00.831Z,28.67
2023-01-10T18:48:05.314Z,42.78
2023-01-10T18:53:07.571Z,16.60
2023-01-10T18:58:10.596Z,16.80
2023-01-10T19:03:12.815Z,17.25
2023-01-10T19:08:15.083Z,18.83
2023-01-10T19:13:17.416Z,19.02
2023-01-10T19:18:19.646Z,16.05
2023-01-10T19:23:21.832Z,16.80
2023-01-10T19:28:24.429Z,17.17
2023-01-10T19:33:26.751Z,16.38
2023-01-10T19:38:28.988Z,20.52
2023-01-10T19:43:31.264Z,15.57
2023-01-10T19:48:38.072Z,13.52
2023-01-10T19:53:44.514Z,14.05
2023-01-10T19:58:46.863Z,12.02
2023-01-10T20:03:49.703Z,56.80
2023-01-10T20:08:54.238Z,11.15
2023-01-10T20:13:56.511Z,10.10
2023-01-10T20:18:58.819Z,14.20
2023-01-10T20:24:01.483Z,11.15
2023-01-10T20:29:04.615Z,9.77
2023-01-10T20:34:06.921Z,8.80
2023-01-10T20:39:09.403Z,10.70
2023-01-10T20:44:11.777Z,8.73
2023-01-10T20:49:14.063Z,8.15
2023-01-10T20:54:16.503Z,9.25
2023-01-10T20:59:18.743Z,9.23
2023-01-10T21:04:20.985Z,8.25
2023-01-10T21:09:23.289Z,9.40
2023-01-10T21:14:25.677Z,7.95
2023-01-10T21:19:27.958Z,8.07
2023-01-10T21:24:30.290Z,9.10
2023-01-10T21:29:32.555Z,8.57
2023-01-10T21:34:35.126Z,8.95
2023-01-10T21:39:37.279Z,10.30
2023-01-10T21:44:39.456Z,9.30
2023-01-10T21:49:41.727Z,9.60
2023-01-10T21:54:44.373Z,10.52
2023-01-10T21:59:46.574Z,10.20
2023-01-10T22:04:50.933Z,10.75
2023-01-10T22:09:53.666Z,10.70
2023-01-10T22:14:56.026Z,10.63
2023-01-10T22:20:58.578Z,10.68
2023-01-10T22:26:40.589Z,11.50
2023-01-10T22:31:43.602Z,10.95
2023-01-10T22:36:45.979Z,11.88
2023-01-10T22:41:48.322Z,12.80
2023-01-10T22:46:52.124Z,12.95
2023-01-10T22:51:54.782Z,12.88
2023-01-10T22:56:57.006Z,12.70
2023-01-10T23:01:59.275Z,11.30
2023-01-10T23:07:01.925Z,12.18
2023-01-10T23:12:04.396Z,12.65
2023-01-10T23:17:06.717Z,12.00
2023-01-10T23:22:08.979Z,11.50
2023-01-10T23:27:11.158Z,11.27
2023-01-10T23:32:13.383Z,11.80
2023-01-10T23:37:15.649Z,9.77
2023-01-10T23:42:17.928Z,10.45
2023-01-10T23:47:20.110Z,10.35
2023-01-10T23:52:22.387Z,10.88
2023-01-10T23:57:24.994Z,10.93
